Time;durP1;ratioP1;P1;durP2;ratioP2;P2;SDS_P1;SDS_P2;PMS_P1;PMS_P2;Temp;Humidity;BMP_temperature;BMP_pressure;BME280_temperature;BME280_humidity;BME280_pressure;Samples;Min_cycle;Max_cycle;Signal;HPM_P1;HPM_P2
2022/06/14 00:01:35;;;;;;;;;;;;;;;14.80;48.97;101358.38;5012534;28;6910;-78
2022/06/14 00:04:01;;;;;;;;;;;;;;;14.76;48.69;101362.50;5002389;28;6800;-78
2022/06/14 00:06:31;;;;;;;;;;;;;;;14.72;48.53;101358.88;4998116;28;8943;-78
2022/06/14 00:08:58;;;;;;;;;;;;;;;14.68;48.79;101356.97;5003162;28;6980;-78
2022/06/14 00:11:34;;;;;;;;;;;;;;;14.65;48.32;101353.34;4963427;28;7881;-78
2022/06/14 00:14:02;;;;;;;;;;;;;;;14.61;48.55;101354.03;5000245;28;6991;-77
2022/06/14 00:16:30;;;;;;;;;;;;;;;14.58;49.29;101354.75;5000477;28;7019;-77
2022/06/14 00:18:56;;;;;;;;;;;;;;;14.55;48.93;101355.50;4995922;28;8808;-77
2022/06/14 00:21:22;;;;;;;;;;;;;;;14.52;49.22;101355.34;5000409;28;6983;-77
2022/06/14 00:23:49;;;;;;;;;;;;;;;14.49;49.47;101355.22;4998092;28;6815;-77
2022/06/14 00:26:15;;;;;;;;;;;;;;;14.46;49.91;101351.63;4994371;28;8211;-77
2022/06/14 00:28:43;;;;;;;;;;;;;;;14.44;49.61;101356.69;4976654;28;7904;-77
2022/06/14 00:31:16;;;;;;;;;;;;;;;14.43;48.92;101357.50;4997057;28;7112;-77
2022/06/14 00:33:42;;;;;;;;;;;;;;;14.42;49.84;101348.88;4984069;28;8810;-77
2022/06/14 00:36:34;;;;;;;;;;;;;;;14.41;49.28;101347.09;5001293;28;6808;-78
2022/06/14 00:39:06;;;;;;;;;;;;;;;14.42;50.19;101350.59;5005407;28;6804;-78
2022/06/14 00:41:44;;;;;;;;;;;;;;;14.41;50.36;101343.66;4998398;28;7078;-78
2022/06/14 00:44:41;;;;;;;;;;;;;;;14.40;50.06;101341.91;4986097;28;8482;-78
2022/06/14 00:47:08;;;;;;;;;;;;;;;14.38;50.13;101346.97;4994175;28;8716;-77
2022/06/14 00:49:53;;;;;;;;;;;;;;;14.37;49.69;101344.31;5010785;28;6879;-77
2022/06/14 00:52:27;;;;;;;;;;;;;;;14.34;49.99;101347.66;4987519;28;7676;-77
2022/06/14 00:55:01;;;;;;;;;;;;;;;14.30;50.46;101349.19;5003752;28;8314;-77
2022/06/14 00:57:40;;;;;;;;;;;;;;;14.28;49.75;101344.75;5002143;28;7152;-80
2022/06/14 01:00:16;;;;;;;;;;;;;;;14.23;50.41;101338.50;4981360;28;9379;-80
2022/06/14 01:02:58;;;;;;;;;;;;;;;14.18;49.74;101340.84;4989266;28;6812;-80
2022/06/14 01:08:22;;;;;;;;;;;;;;;14.10;49.93;101334.44;5004313;28;6839;-80
2022/06/14 01:10:49;;;;;;;;;;;;;;;14.07;49.88;101342.91;4984215;28;7210;-80
2022/06/14 01:13:18;;;;;;;;;;;;;;;14.06;50.30;101340.25;5002279;28;6978;-80
2022/06/14 01:15:49;;;;;;;;;;;;;;;14.01;49.92;101335.78;4995100;28;6981;-80
2022/06/14 01:18:17;;;;;;;;;;;;;;;13.98;50.03;101334.75;4984132;28;6824;-80
2022/06/14 01:20:43;;;;;;;;;;;;;;;13.95;50.59;101334.56;4977538;28;6804;-80
2022/06/14 01:23:14;;;;;;;;;;;;;;;13.91;50.00;101333.56;4982184;28;7870;-80
2022/06/14 01:25:47;;;;;;;;;;;;;;;13.89;49.88;101335.16;4988753;28;6832;-80
2022/06/14 01:28:15;;;;;;;;;;;;;;;13.84;50.96;101329.78;4984345;28;6812;-80
2022/06/14 01:30:48;;;;;;;;;;;;;;;13.78;51.52;101337.22;4976945;28;7110;-80
2022/06/14 01:33:22;;;;;;;;;;;;;;;13.74;51.11;101336.19;4996233;28;7320;-80
2022/06/14 01:35:59;;;;;;;;;;;;;;;13.71;51.88;101336.03;4987966;28;8050;-80
2022/06/14 01:38:25;;;;;;;;;;;;;;;13.68;51.97;101328.13;4998866;28;6835;-80
2022/06/14 01:41:25;;;;;;;;;;;;;;;13.66;51.54;101324.59;4996414;28;6884;-80
2022/06/14 01:44:05;;;;;;;;;;;;;;;13.62;51.67;101322.69;5014137;28;7041;-81
2022/06/14 01:47:09;;;;;;;;;;;;;;;13.58;52.58;101323.31;4997609;28;6920;-80
2022/06/14 01:52:51;;;;;;;;;;;;;;;13.50;52.66;101327.19;5006503;28;7084;-80
2022/06/14 01:55:39;;;;;;;;;;;;;;;13.47;51.85;101328.81;5002415;28;6819;-80
2022/06/14 01:58:32;;;;;;;;;;;;;;;13.43;51.74;101326.88;5002210;28;8701;-80
2022/06/14 02:01:20;;;;;;;;;;;;;;;13.40;52.32;101330.97;4999618;28;7365;-80
2022/06/14 02:06:55;;;;;;;;;;;;;;;13.33;52.24;101324.63;5003792;28;7321;-80
2022/06/14 02:09:56;;;;;;;;;;;;;;;13.31;52.20;101324.53;5004451;28;6800;-80
2022/06/14 02:13:03;;;;;;;;;;;;;;;13.29;52.22;101330.41;5018467;28;6816;-80
2022/06/14 02:15:47;;;;;;;;;;;;;;;13.27;52.33;101332.03;4995879;28;7181;-80
2022/06/14 02:18:32;;;;;;;;;;;;;;;13.26;51.86;101322.53;4995566;28;6967;-80
2022/06/14 02:21:16;;;;;;;;;;;;;;;13.25;51.88;101318.19;5000093;28;7144;-80
2022/06/14 02:23:51;;;;;;;;;;;;;;;13.23;52.30;101324.94;4976389;28;7250;-80
2022/06/14 02:26:26;;;;;;;;;;;;;;;13.23;52.07;101319.78;4995296;28;7219;-80
2022/06/14 02:29:14;;;;;;;;;;;;;;;13.21;51.70;101314.56;4997866;28;6950;-80
2022/06/14 02:31:54;;;;;;;;;;;;;;;13.19;51.53;101305.91;4970704;28;8560;-80
2022/06/14 02:34:36;;;;;;;;;;;;;;;13.18;51.71;101301.53;4983172;28;6957;-79
2022/06/14 02:38:01;;;;;;;;;;;;;;;13.16;52.20;101293.75;4985791;28;8505;-80
2022/06/14 02:41:20;;;;;;;;;;;;;;;13.11;51.82;101297.75;4985400;28;8404;-80
2022/06/14 02:44:04;;;;;;;;;;;;;;;13.08;51.72;101297.59;4962185;28;8051;-79
2022/06/14 02:46:45;;;;;;;;;;;;;;;13.04;51.93;101293.97;4975385;28;7311;-78
2022/06/14 02:49:39;;;;;;;;;;;;;;;13.01;51.95;101292.94;5004197;28;7244;-78
2022/06/14 02:52:24;;;;;;;;;;;;;;;12.96;51.88;101299.53;5001502;28;6820;-78
2022/06/14 02:55:43;;;;;;;;;;;;;;;12.91;52.14;101291.59;4995067;28;6839;-78
2022/06/14 02:58:18;;;;;;;;;;;;;;;12.90;53.22;101285.53;4986974;28;7351;-78
2022/06/14 03:00:51;;;;;;;;;;;;;;;12.92;52.70;101285.63;4992109;28;6998;-78
2022/06/14 03:03:31;;;;;;;;;;;;;;;12.96;52.94;101289.25;4980049;28;8038;-78
2022/06/14 03:06:24;;;;;;;;;;;;;;;12.97;53.08;101286.75;4987863;28;6978;-78
2022/06/14 03:09:34;;;;;;;;;;;;;;;12.99;53.02;101284.25;5001484;28;6816;-78
2022/06/14 03:12:06;;;;;;;;;;;;;;;12.99;52.57;101284.25;4985268;28;8430;-78
2022/06/14 03:15:03;;;;;;;;;;;;;;;12.99;52.99;101281.69;5017235;28;7771;-78
2022/06/14 03:17:44;;;;;;;;;;;;;;;12.98;53.34;101287.63;4991110;28;7574;-78
2022/06/14 03:20:29;;;;;;;;;;;;;;;12.98;52.74;101280.78;4982622;28;8408;-78
2022/06/14 03:23:20;;;;;;;;;;;;;;;12.98;53.09;101280.78;4998818;28;6808;-78
2022/06/14 03:26:02;;;;;;;;;;;;;;;12.96;53.09;101279.81;5002408;28;6981;-78
2022/06/14 03:28:43;;;;;;;;;;;;;;;12.92;52.75;101286.50;4989518;28;7624;-78
2022/06/14 03:31:13;;;;;;;;;;;;;;;12.88;52.69;101276.88;4996843;28;7050;-78
2022/06/14 03:34:00;;;;;;;;;;;;;;;12.85;53.63;101281.88;5012990;28;6958;-78
2022/06/14 03:36:27;;;;;;;;;;;;;;;12.81;53.45;101279.91;5004433;28;8473;-78
2022/06/14 03:39:18;;;;;;;;;;;;;;;12.83;53.05;101288.59;5018503;28;7263;-78
2022/06/14 03:41:48;;;;;;;;;;;;;;;12.84;53.26;101294.63;5001109;28;7164;-78
2022/06/14 03:44:17;;;;;;;;;;;;;;;12.83;52.98;101287.72;4987646;28;7895;-78
2022/06/14 03:47:09;;;;;;;;;;;;;;;12.81;53.80;101287.63;4988489;28;8438;-77
2022/06/14 03:49:38;;;;;;;;;;;;;;;12.79;53.18;101278.94;4987189;28;7063;-77
2022/06/14 03:52:31;;;;;;;;;;;;;;;12.78;53.94;101288.34;4998471;28;6815;-77
2022/06/14 03:55:18;;;;;;;;;;;;;;;12.75;53.29;101295.03;5002307;28;6819;-77
2022/06/14 03:58:28;;;;;;;;;;;;;;;12.74;53.30;101291.56;5019873;28;7679;-77
2022/06/14 04:01:15;;;;;;;;;;;;;;;12.74;54.08;101290.66;5003935;28;6828;-77
2022/06/14 04:04:17;;;;;;;;;;;;;;;12.77;54.15;101293.44;5004331;28;8277;-77
2022/06/14 04:07:19;;;;;;;;;;;;;;;12.82;53.57;101294.53;5004349;28;6815;-77
2022/06/14 04:10:27;;;;;;;;;;;;;;;12.87;53.61;101293.09;5003153;28;9739;-78
2022/06/14 04:13:26;;;;;;;;;;;;;;;12.94;53.67;101284.03;4992077;28;7010;-77
2022/06/14 04:16:32;;;;;;;;;;;;;;;13.08;54.70;101289.88;4994949;28;6812;-77
2022/06/14 04:19:29;;;;;;;;;;;;;;;13.42;56.32;101286.47;4985085;28;8419;-77
2022/06/14 04:22:20;;;;;;;;;;;;;;;13.85;56.28;101292.88;5018497;28;6816;-77
2022/06/14 04:25:04;;;;;;;;;;;;;;;14.40;57.26;101290.31;5000052;28;8183;-77
2022/06/14 04:27:39;;;;;;;;;;;;;;;14.96;57.73;101285.09;4968677;28;9235;-77
2022/06/14 04:30:30;;;;;;;;;;;;;;;15.55;57.00;101287.63;4999616;28;6816;-77
2022/06/14 04:33:30;;;;;;;;;;;;;;;16.26;56.73;101287.00;5004727;28;7194;-77
2022/06/14 04:36:09;;;;;;;;;;;;;;;16.92;56.10;101287.72;4987128;28;6974;-78
2022/06/14 04:38:48;;;;;;;;;;;;;;;17.50;55.29;101285.44;4991068;28;7023;-78
2022/06/14 04:41:42;;;;;;;;;;;;;;;18.10;54.17;101281.31;5001497;28;7027;-78
2022/06/14 04:44:33;;;;;;;;;;;;;;;18.69;53.14;101284.78;5006469;28;6994;-78
2022/06/14 04:47:14;;;;;;;;;;;;;;;19.27;52.38;101277.72;4982345;28;7377;-78
2022/06/14 04:50:42;;;;;;;;;;;;;;;19.83;51.13;101280.81;4988420;28;6812;-76
2022/06/14 04:53:16;;;;;;;;;;;;;;;20.41;49.88;101283.00;4973091;28;8757;-76
2022/06/14 04:56:13;;;;;;;;;;;;;;;20.92;48.84;101276.25;4982506;28;6992;-76
2022/06/14 04:59:05;;;;;;;;;;;;;;;21.37;48.30;101273.59;4975002;28;7091;-76
2022/06/14 05:01:47;;;;;;;;;;;;;;;21.87;47.00;101279.63;4997825;28;6832;-77
2022/06/14 05:04:32;;;;;;;;;;;;;;;22.27;46.25;101281.94;5003690;28;6799;-76
2022/06/14 05:07:09;;;;;;;;;;;;;;;22.65;44.19;101278.09;5000538;28;6831;-76
2022/06/14 05:09:41;;;;;;;;;;;;;;;22.99;42.92;101274.09;4996711;28;7095;-76
2022/06/14 05:12:16;;;;;;;;;;;;;;;23.32;42.62;101266.59;4996349;28;8484;-76
2022/06/14 05:14:56;;;;;;;;;;;;;;;23.63;42.04;101273.84;4990813;28;6991;-76
2022/06/14 05:17:35;;;;;;;;;;;;;;;23.88;41.98;101271.38;5005748;28;8142;-76
2022/06/14 05:20:07;;;;;;;;;;;;;;;24.05;40.63;101271.53;5003199;28;7857;-76
2022/06/14 05:23:02;;;;;;;;;;;;;;;24.10;40.33;101267.19;4998562;28;7338;-76
2022/06/14 05:26:01;;;;;;;;;;;;;;;24.11;40.59;101269.81;4982659;28;6800;-75
2022/06/14 05:28:55;;;;;;;;;;;;;;;24.19;39.96;101268.97;4989929;28;6803;-75
2022/06/14 05:31:56;;;;;;;;;;;;;;;24.25;40.24;101267.28;5001101;28;7141;-75
2022/06/14 05:34:40;;;;;;;;;;;;;;;24.22;39.02;101266.38;5002240;28;6827;-75
2022/06/14 05:37:38;;;;;;;;;;;;;;;23.99;38.15;101275.81;5007775;28;8118;-75
2022/06/14 05:40:44;;;;;;;;;;;;;;;23.78;38.03;101283.53;4974159;28;6891;-75
2022/06/14 05:44:13;;;;;;;;;;;;;;;23.57;37.25;101280.75;4996650;28;6840;-76
2022/06/14 05:46:51;;;;;;;;;;;;;;;23.42;37.21;101278.03;4935824;28;7017;-76
2022/06/14 05:49:30;;;;;;;;;;;;;;;23.33;37.22;101275.34;4992035;28;7019;-76
2022/06/14 05:52:12;;;;;;;;;;;;;;;23.26;37.73;101274.34;4988671;28;7264;-76
2022/06/14 05:54:51;;;;;;;;;;;;;;;23.21;37.79;101281.28;4970618;28;7164;-76
2022/06/14 05:57:42;;;;;;;;;;;;;;;22.98;37.73;101279.31;4999348;28;7187;-76
2022/06/14 06:00:24;;;;;;;;;;;;;;;22.70;37.15;101281.66;5005780;28;9109;-76
2022/06/14 06:03:25;;;;;;;;;;;;;;;22.24;37.41;101288.00;4980881;28;8552;-76
2022/06/14 06:06:04;;;;;;;;;;;;;;;21.72;37.68;101285.47;5007392;28;6815;-76
2022/06/14 06:08:45;;;;;;;;;;;;;;;21.27;38.09;101297.75;4998456;28;6894;-76
2022/06/14 06:11:25;;;;;;;;;;;;;;;20.89;38.61;101297.03;4999406;28;6811;-76
2022/06/14 06:14:19;;;;;;;;;;;;;;;20.54;39.74;101303.25;4982090;28;8903;-76
2022/06/14 06:17:04;;;;;;;;;;;;;;;20.30;39.76;101301.00;5001063;28;7643;-76
2022/06/14 06:20:01;;;;;;;;;;;;;;;20.12;39.70;101297.16;5002040;28;6824;-76
2022/06/14 06:22:50;;;;;;;;;;;;;;;19.93;40.44;101297.53;5003557;28;6820;-76
2022/06/14 06:25:25;;;;;;;;;;;;;;;19.76;40.31;101299.72;4998274;28;7897;-76
2022/06/14 06:28:05;;;;;;;;;;;;;;;19.62;40.31;101296.78;4970072;28;8742;-75
2022/06/14 06:30:52;;;;;;;;;;;;;;;19.50;40.88;101297.34;5018110;28;7289;-76
2022/06/14 06:33:20;;;;;;;;;;;;;;;19.44;40.84;101290.28;4993655;28;7692;-76
2022/06/14 06:36:22;;;;;;;;;;;;;;;19.40;41.33;101298.81;5001241;28;7244;-76
2022/06/14 06:39:39;;;;;;;;;;;;;;;19.37;41.89;101301.34;5003092;28;6828;-76
2022/06/14 06:42:36;;;;;;;;;;;;;;;19.33;42.34;101302.13;5002759;28;6980;-75
2022/06/14 06:45:28;;;;;;;;;;;;;;;19.29;42.51;101291.63;5003602;28;6863;-75
2022/06/14 06:48:19;;;;;;;;;;;;;;;19.32;42.12;101300.38;4969857;28;7002;-75
2022/06/14 06:50:55;;;;;;;;;;;;;;;19.37;42.48;101296.16;5001080;28;6823;-76
2022/06/14 06:53:24;;;;;;;;;;;;;;;19.44;43.39;101290.28;4964783;28;8493;-76
2022/06/14 06:56:15;;;;;;;;;;;;;;;19.63;43.42;101301.16;5002824;28;6816;-76
2022/06/14 06:58:58;;;;;;;;;;;;;;;19.96;43.69;101300.22;4980406;28;6885;-75
2022/06/14 07:01:40;;;;;;;;;;;;;;;20.33;43.98;101303.66;4965676;28;7400;-75
2022/06/14 07:04:19;;;;;;;;;;;;;;;20.77;43.80;101312.41;4982870;28;7055;-76
2022/06/14 07:06:59;;;;;;;;;;;;;;;21.26;43.20;101304.66;4998473;28;8402;-76
2022/06/14 07:09:42;;;;;;;;;;;;;;;21.67;42.59;101301.06;5002620;28;6827;-75
2022/06/14 07:12:21;;;;;;;;;;;;;;;22.10;41.80;101299.94;5007826;28;6812;-75
2022/06/14 07:15:05;;;;;;;;;;;;;;;22.56;41.19;101300.63;5004933;28;8083;-75
2022/06/14 07:18:04;;;;;;;;;;;;;;;23.00;40.79;101298.53;4990368;28;6819;-76
2022/06/14 07:21:08;;;;;;;;;;;;;;;23.38;40.12;101294.56;5001788;28;6888;-76
2022/06/14 07:23:55;;;;;;;;;;;;;;;23.91;39.00;101295.84;4940989;28;7106;-75
2022/06/14 07:26:40;;;;;;;;;;;;;;;24.32;38.41;101291.75;5000657;28;6795;-76
2022/06/14 07:29:35;;;;;;;;;;;;;;;24.68;37.50;101299.75;4998580;28;6807;-75
2022/06/14 07:32:27;;;;;;;;;;;;;;;25.05;37.08;101293.75;4993952;28;6832;-75
2022/06/14 07:34:54;;;;;;;;;;;;;;;25.25;36.16;101291.19;4986217;28;8567;-75
2022/06/14 07:37:42;;;;;;;;;;;;;;;25.36;35.28;101289.44;5003327;28;6874;-74
2022/06/14 07:40:33;;;;;;;;;;;;;;;25.43;34.81;101286.81;5005756;28;6903;-75
2022/06/14 07:43:12;;;;;;;;;;;;;;;25.51;35.04;101293.00;5000565;28;6827;-75
2022/06/14 07:45:42;;;;;;;;;;;;;;;25.59;34.55;101287.72;5007881;28;6811;-75
2022/06/14 07:48:22;;;;;;;;;;;;;;;25.75;34.82;101289.47;4998779;28;7132;-75
2022/06/14 07:50:58;;;;;;;;;;;;;;;26.04;34.74;101291.16;5002987;28;6796;-75
2022/06/14 07:53:51;;;;;;;;;;;;;;;26.36;34.02;101288.47;5005103;28;6812;-75
2022/06/14 07:56:26;;;;;;;;;;;;;;;26.66;33.47;101281.31;5001365;28;7051;-75
2022/06/14 07:59:24;;;;;;;;;;;;;;;27.00;32.86;101282.03;4970444;28;7010;-75
2022/06/14 08:02:07;;;;;;;;;;;;;;;27.29;32.54;101280.09;4992356;28;7179;-75
2022/06/14 08:04:48;;;;;;;;;;;;;;;27.70;32.24;101283.25;4999092;28;6819;-75
2022/06/14 08:07:17;;;;;;;;;;;;;;;28.07;31.15;101277.63;4989364;28;8519;-75
2022/06/14 08:10:23;;;;;;;;;;;;;;;28.40;30.95;101272.88;5004310;28;7598;-75
2022/06/14 08:13:13;;;;;;;;;;;;;;;28.54;30.36;101267.44;4982603;28;6803;-75
2022/06/14 08:15:46;;;;;;;;;;;;;;;28.61;29.58;101268.22;5006861;28;7233;-75
2022/06/14 08:18:21;;;;;;;;;;;;;;;28.54;29.07;101272.69;5002983;28;6808;-75
2022/06/14 08:21:03;;;;;;;;;;;;;;;28.59;28.93;101267.38;4986886;28;7044;-75
2022/06/14 08:23:55;;;;;;;;;;;;;;;28.53;28.94;101260.38;5005734;28;6904;-75
2022/06/14 08:26:45;;;;;;;;;;;;;;;28.54;29.15;101250.72;5008229;28;6815;-75
2022/06/14 08:29:24;;;;;;;;;;;;;;;28.82;29.17;101251.22;4980215;28;6992;-76
2022/06/14 08:32:02;;;;;;;;;;;;;;;28.98;29.24;101242.22;5006114;28;8233;-75
2022/06/14 08:34:46;;;;;;;;;;;;;;;29.06;28.19;101237.66;4974516;28;7092;-75
2022/06/14 08:37:23;;;;;;;;;;;;;;;29.18;28.65;101239.25;5005188;28;6895;-75
2022/06/14 08:39:59;;;;;;;;;;;;;;;29.49;28.48;101234.34;5004530;28;6815;-75
2022/06/14 08:42:32;;;;;;;;;;;;;;;29.80;27.83;101233.75;5003511;28;6812;-75
2022/06/14 08:45:12;;;;;;;;;;;;;;;30.03;27.15;101231.56;5005374;28;7298;-75
2022/06/14 08:48:03;;;;;;;;;;;;;;;30.17;27.32;101233.94;5004742;28;8955;-75
2022/06/14 08:50:46;;;;;;;;;;;;;;;30.24;25.89;101229.41;5002067;28;6911;-75
2022/06/14 08:53:46;;;;;;;;;;;;;;;30.26;25.75;101228.47;5001259;28;6812;-75
2022/06/14 08:57:03;;;;;;;;;;;;;;;30.35;26.11;101222.09;4985229;28;6819;-75
2022/06/14 09:00:17;;;;;;;;;;;;;;;30.57;25.98;101227.78;5002859;28;6819;-76
2022/06/14 09:03:20;;;;;;;;;;;;;;;31.04;25.99;101224.06;5005337;28;7030;-76
2022/06/14 09:06:36;;;;;;;;;;;;;;;31.65;24.99;101228.69;5001087;28;7151;-75
2022/06/14 09:09:26;;;;;;;;;;;;;;;32.20;23.95;101221.88;5001213;28;7636;-76
2022/06/14 09:12:41;;;;;;;;;;;;;;;32.48;23.78;101221.94;5020492;28;6932;-76
2022/06/14 09:15:24;;;;;;;;;;;;;;;32.79;23.82;101230.72;4988491;28;6819;-76
2022/06/14 09:18:18;;;;;;;;;;;;;;;32.86;23.22;101224.28;5006656;28;6807;-76
2022/06/14 09:21:30;;;;;;;;;;;;;;;32.31;23.59;101221.56;5007546;28;6820;-76
2022/06/14 09:24:50;;;;;;;;;;;;;;;32.09;23.94;101224.88;5016584;28;7043;-76
2022/06/14 09:27:54;;;;;;;;;;;;;;;31.97;23.53;101219.00;5012962;28;7373;-76
2022/06/14 09:30:42;;;;;;;;;;;;;;;31.38;23.61;101225.88;5019235;28;8123;-76
2022/06/14 09:33:19;;;;;;;;;;;;;;;31.23;23.32;101231.56;5001047;28;8104;-76
2022/06/14 09:36:22;;;;;;;;;;;;;;;31.29;23.13;101223.47;5006208;28;6898;-76
2022/06/14 09:39:12;;;;;;;;;;;;;;;31.26;23.47;101215.63;5016322;28;7226;-76
2022/06/14 09:42:00;;;;;;;;;;;;;;;31.60;23.73;101222.66;4979370;28;7285;-76
2022/06/14 09:44:37;;;;;;;;;;;;;;;32.07;23.55;101213.44;5007897;28;6965;-76
2022/06/14 09:48:12;;;;;;;;;;;;;;;32.75;23.43;101205.19;5002413;28;6820;-76
2022/06/14 09:51:27;;;;;;;;;;;;;;;33.60;22.75;101197.00;4965919;28;6908;-76
2022/06/14 09:54:28;;;;;;;;;;;;;;;34.29;21.74;101192.69;5006581;28;7127;-76
2022/06/14 09:57:17;;;;;;;;;;;;;;;34.78;20.94;101183.66;5015031;28;6816;-76
2022/06/14 10:00:18;;;;;;;;;;;;;;;34.91;20.69;101194.66;5005224;28;7398;-76
2022/06/14 10:03:30;;;;;;;;;;;;;;;34.77;20.70;101189.91;5003408;28;6812;-76
2022/06/14 10:06:12;;;;;;;;;;;;;;;34.48;20.79;101190.16;4993712;28;7022;-76
2022/06/14 10:08:58;;;;;;;;;;;;;;;34.26;21.19;101184.84;5003778;28;6840;-76
2022/06/14 10:11:58;;;;;;;;;;;;;;;34.23;20.82;101190.25;5001698;28;7000;-76
2022/06/14 10:14:49;;;;;;;;;;;;;;;34.25;20.86;101190.22;5012854;28;6827;-76
2022/06/14 10:17:54;;;;;;;;;;;;;;;34.25;21.02;101180.44;5001159;28;6958;-75
2022/06/14 10:21:02;;;;;;;;;;;;;;;34.28;20.99;101184.75;5000954;28;7250;-76
2022/06/14 10:24:20;;;;;;;;;;;;;;;34.13;20.65;101181.78;5020332;28;7051;-76
2022/06/14 10:30:40;;;;;;;;;;;;;;;34.22;20.48;101169.91;4996629;28;6911;-77
2022/06/14 10:33:34;;;;;;;;;;;;;;;34.19;21.05;101170.94;4988749;28;6836;-77
2022/06/14 10:36:42;;;;;;;;;;;;;;;34.11;20.53;101178.34;4972748;28;6999;-76
2022/06/14 10:39:30;;;;;;;;;;;;;;;33.94;20.41;101171.84;5000947;28;7217;-76
2022/06/14 10:42:33;;;;;;;;;;;;;;;33.96;20.48;101169.13;5003750;28;7222;-76
2022/06/14 10:45:37;;;;;;;;;;;;;;;34.27;20.26;101159.09;5006485;28;8395;-76
2022/06/14 10:48:34;;;;;;;;;;;;;;;34.41;20.38;101162.06;4991613;28;6903;-76
2022/06/14 10:51:02;;;;;;;;;;;;;;;34.28;20.29;101156.38;5001751;28;8058;-76
2022/06/14 10:53:30;;;;;;;;;;;;;;;34.31;20.57;101148.25;5007667;28;6840;-76
2022/06/14 10:56:35;;;;;;;;;;;;;;;34.51;20.06;101138.59;5007130;28;6879;-76
2022/06/14 10:59:48;;;;;;;;;;;;;;;34.58;19.97;101139.28;4951695;28;7764;-76
2022/06/14 11:02:50;;;;;;;;;;;;;;;34.38;20.41;101146.22;4922688;28;7190;-76
2022/06/14 11:06:11;;;;;;;;;;;;;;;34.34;20.26;101137.53;5002633;28;8708;-77
2022/06/14 11:08:58;;;;;;;;;;;;;;;34.57;20.64;101134.84;5001850;28;6903;-76
2022/06/14 11:11:42;;;;;;;;;;;;;;;34.86;20.23;101132.75;5003114;28;7210;-76
2022/06/14 11:14:24;;;;;;;;;;;;;;;35.02;19.71;101130.31;5003497;28;7615;-76
2022/06/14 11:17:27;;;;;;;;;;;;;;;35.08;19.95;101126.53;5001434;28;6812;-76
2022/06/14 11:20:38;;;;;;;;;;;;;;;35.09;19.87;101123.78;4987403;28;6820;-76
2022/06/14 11:23:15;;;;;;;;;;;;;;;35.22;20.07;101118.78;4977654;28;6824;-76
2022/06/14 11:26:23;;;;;;;;;;;;;;;35.52;19.83;101110.31;5003146;28;6835;-76
2022/06/14 11:29:13;;;;;;;;;;;;;;;35.64;19.02;101097.38;4967392;28;8468;-76
2022/06/14 11:31:56;;;;;;;;;;;;;;;35.63;19.49;101106.31;5003435;28;6827;-76
2022/06/14 11:34:33;;;;;;;;;;;;;;;35.77;19.02;101097.69;4998551;28;6807;-76
2022/06/14 11:37:39;;;;;;;;;;;;;;;35.57;18.94;101095.03;5007517;28;7010;-77
2022/06/14 11:40:12;;;;;;;;;;;;;;;35.00;19.70;101097.53;5002511;28;6887;-76
2022/06/14 11:42:53;;;;;;;;;;;;;;;34.47;20.07;101095.28;5000705;28;8383;-76
2022/06/14 11:46:02;;;;;;;;;;;;;;;34.37;20.17;101093.94;5001544;28;6891;-76
2022/06/14 11:48:51;;;;;;;;;;;;;;;34.51;20.32;101087.19;5002264;28;6816;-76
2022/06/14 11:51:31;;;;;;;;;;;;;;;34.64;19.86;101087.59;4991147;28;7172;-76
2022/06/14 11:54:13;;;;;;;;;;;;;;;34.72;20.24;101080.09;4992315;28;7871;-76
2022/06/14 11:57:06;;;;;;;;;;;;;;;35.02;19.90;101085.88;5006401;28;7192;-76
2022/06/14 11:59:58;;;;;;;;;;;;;;;35.20;19.52;101080.72;5008555;28;7217;-76
2022/06/14 12:02:46;;;;;;;;;;;;;;;35.25;19.32;101081.38;5006257;28;7026;-76
2022/06/14 12:05:22;;;;;;;;;;;;;;;35.34;19.77;101081.88;5020753;28;6890;-76
2022/06/14 12:08:13;;;;;;;;;;;;;;;35.48;19.34;101076.78;5003990;28;7775;-76
2022/06/14 12:10:57;;;;;;;;;;;;;;;35.34;19.46;101081.88;5020216;28;7070;-76
2022/06/14 12:14:00;;;;;;;;;;;;;;;35.00;19.89;101079.78;5002348;28;7212;-76
2022/06/14 12:16:41;;;;;;;;;;;;;;;34.56;19.76;101078.13;5000394;28;7378;-76
2022/06/14 12:19:11;;;;;;;;;;;;;;;34.34;19.82;101078.13;5003141;28;6833;-76
2022/06/14 12:21:49;;;;;;;;;;;;;;;34.12;19.97;101065.72;4970643;28;7000;-76
2022/06/14 12:26:34;;;;;;;;;;;;;;;34.14;19.77;101065.63;5003977;28;6803;-76
2022/06/14 12:27:13;;;;;;;;;;;;;;;34.30;20.49;101068.56;5002928;28;6841;-76
2022/06/14 12:29:44;;;;;;;;;;;;;;;34.38;20.02;101063.75;5003503;28;6997;-76
2022/06/14 12:32:18;;;;;;;;;;;;;;;34.40;19.43;101061.91;4972671;28;7166;-76
2022/06/14 12:34:54;;;;;;;;;;;;;;;34.47;19.94;101057.19;5023796;28;6886;-76
2022/06/14 12:38:02;;;;;;;;;;;;;;;34.61;19.74;101053.97;4979983;28;7235;-76
2022/06/14 12:40:47;;;;;;;;;;;;;;;34.72;19.33;101040.19;4988479;28;8082;-76
2022/06/14 12:44:02;;;;;;;;;;;;;;;34.92;19.43;101041.97;5004678;28;6923;-76
2022/06/14 12:46:35;;;;;;;;;;;;;;;34.99;19.12;101035.44;4988986;28;6859;-76
2022/06/14 12:49:35;;;;;;;;;;;;;;;35.20;19.54;101045.22;5004365;28;6804;-76
2022/06/14 12:52:27;;;;;;;;;;;;;;;34.98;18.85;101033.72;5001826;28;6815;-76
2022/06/14 12:55:24;;;;;;;;;;;;;;;34.66;19.22;101033.34;4999093;28;7113;-76
2022/06/14 12:58:25;;;;;;;;;;;;;;;34.65;19.67;101034.28;5001475;28;7215;-76
2022/06/14 13:01:00;;;;;;;;;;;;;;;34.47;19.60;101022.59;5007743;28;7039;-76
2022/06/14 13:04:02;;;;;;;;;;;;;;;34.41;19.80;101028.19;4986128;28;7847;-76
2022/06/14 13:06:56;;;;;;;;;;;;;;;34.34;19.50;101024.94;5004010;28;6823;-76
2022/06/14 13:09:49;;;;;;;;;;;;;;;34.40;19.90;101016.69;4961812;28;6990;-76
2022/06/14 13:12:39;;;;;;;;;;;;;;;34.62;19.52;101019.31;5005626;28;6836;-76
2022/06/14 13:15:34;;;;;;;;;;;;;;;34.78;19.67;101005.31;5007404;28;7125;-76
2022/06/14 13:18:44;;;;;;;;;;;;;;;34.99;19.68;101013.28;5004086;28;6883;-76
2022/06/14 13:21:28;;;;;;;;;;;;;;;35.02;19.50;101000.69;5007901;28;6900;-76
2022/06/14 13:24:44;;;;;;;;;;;;;;;35.08;19.57;100996.91;5003768;28;6895;-76
2022/06/14 13:27:37;;;;;;;;;;;;;;;34.90;19.76;101004.75;5021246;28;6808;-76
2022/06/14 13:30:52;;;;;;;;;;;;;;;34.36;19.79;101001.78;4993717;28;8506;-76
2022/06/14 13:33:34;;;;;;;;;;;;;;;34.21;19.97;101004.19;5000480;28;8303;-76
2022/06/14 13:36:17;;;;;;;;;;;;;;;34.11;19.67;100996.63;4995817;28;8389;-76
2022/06/14 13:39:14;;;;;;;;;;;;;;;33.90;20.60;100997.44;4998684;28;7209;-76
2022/06/14 13:42:02;;;;;;;;;;;;;;;33.73;20.55;100995.44;5004214;28;7071;-76
2022/06/14 13:45:00;;;;;;;;;;;;;;;33.61;19.96;100991.53;4984538;28;7489;-76
2022/06/14 13:48:22;;;;;;;;;;;;;;;33.60;20.88;100976.47;4991818;28;7860;-76
2022/06/14 13:51:17;;;;;;;;;;;;;;;33.90;20.52;100986.81;4968635;28;8362;-76
2022/06/14 13:53:54;;;;;;;;;;;;;;;34.12;19.81;100985.06;5001605;28;7205;-76
2022/06/14 13:56:35;;;;;;;;;;;;;;;34.13;20.05;100974.38;4982199;28;7122;-76
2022/06/14 13:59:17;;;;;;;;;;;;;;;34.09;20.29;100967.44;4978665;28;7078;-76
2022/06/14 14:02:00;;;;;;;;;;;;;;;34.04;20.00;100969.44;4986123;28;6804;-76
2022/06/14 14:04:59;;;;;;;;;;;;;;;34.01;20.38;100961.59;5014818;28;6800;-76
2022/06/14 14:07:38;;;;;;;;;;;;;;;33.96;20.38;100966.22;4979534;28;8734;-76
2022/06/14 14:10:06;;;;;;;;;;;;;;;33.66;19.78;100965.63;5005236;28;7169;-76
2022/06/14 14:13:02;;;;;;;;;;;;;;;33.22;20.23;100961.09;5014484;28;6895;-76
2022/06/14 14:16:18;;;;;;;;;;;;;;;32.71;20.78;100955.00;4997523;28;6800;-76
2022/06/14 14:19:20;;;;;;;;;;;;;;;32.39;21.50;100957.88;4917554;29;9607;-76
2022/06/14 14:22:00;;;;;;;;;;;;;;;32.35;21.76;100956.22;4994870;28;6823;-76
2022/06/14 14:24:45;;;;;;;;;;;;;;;32.23;21.67;100954.84;4987471;28;8100;-76
2022/06/14 14:27:27;;;;;;;;;;;;;;;32.16;21.80;100949.81;4964561;28;7089;-76
2022/06/14 14:30:15;;;;;;;;;;;;;;;32.08;21.70;100944.78;4999056;28;7051;-76
2022/06/14 14:33:15;;;;;;;;;;;;;;;31.97;22.24;100943.38;5003180;28;6906;-76
2022/06/14 14:35:57;;;;;;;;;;;;;;;32.00;21.94;100939.72;4964588;28;6808;-76
2022/06/14 14:39:04;;;;;;;;;;;;;;;32.05;22.10;100935.16;4999829;28;6812;-76
2022/06/14 14:41:45;;;;;;;;;;;;;;;32.09;22.23;100936.78;4995502;28;6824;-76
2022/06/14 14:44:27;;;;;;;;;;;;;;;32.05;21.79;100934.28;4984334;28;8724;-76
2022/06/14 14:47:11;;;;;;;;;;;;;;;32.02;22.14;100929.09;4995872;28;6987;-76